sensor_id;sensor_type;location;lat;lon;timestamp;pressure;altitude;pressure_sealevel;temperature;humidity
20656;BME280;10487;53.320;8.672;2022-09-02T00:02:28;101909.69;;;12.12;39.82
20656;BME280;10487;53.320;8.672;2022-09-02T00:05:31;101912.59;;;12.09;40.01
20656;BME280;10487;53.320;8.672;2022-09-02T00:08:33;101919.00;;;12.07;39.91
20656;BME280;10487;53.320;8.672;2022-09-02T00:11:36;101914.69;;;12.04;39.76
20656;BME280;10487;53.320;8.672;2022-09-02T00:14:38;101909.59;;;12.00;40.09
20656;BME280;10487;53.320;8.672;2022-09-02T00:17:40;101908.94;;;11.96;39.88
20656;BME280;10487;53.320;8.672;2022-09-02T00:20:44;101911.03;;;11.91;40.27
20656;BME280;10487;53.320;8.672;2022-09-02T00:23:46;101905.97;;;11.87;39.92
20656;BME280;10487;53.320;8.672;2022-09-02T00:26:48;101907.97;;;11.83;39.98
20656;BME280;10487;53.320;8.672;2022-09-02T00:29:49;101908.25;;;11.78;40.20
20656;BME280;10487;53.320;8.672;2022-09-02T00:32:52;101903.25;;;11.72;40.20
20656;BME280;10487;53.320;8.672;2022-09-02T00:35:54;101908.00;;;11.67;40.31
20656;BME280;10487;53.320;8.672;2022-09-02T00:38:56;101901.25;;;11.62;40.32
20656;BME280;10487;53.320;8.672;2022-09-02T00:41:57;101905.13;;;11.56;40.46
20656;BME280;10487;53.320;8.672;2022-09-02T00:44:59;101907.13;;;11.53;40.45
20656;BME280;10487;53.320;8.672;2022-09-02T00:48:04;101902.00;;;11.48;40.69
20656;BME280;10487;53.320;8.672;2022-09-02T00:51:07;101902.28;;;11.44;40.52
20656;BME280;10487;53.320;8.672;2022-09-02T00:54:13;101899.03;;;11.39;40.75
20656;BME280;10487;53.320;8.672;2022-09-02T00:57:17;101905.41;;;11.36;40.57
20656;BME280;10487;53.320;8.672;2022-09-02T01:00:25;101888.69;;;11.33;40.59
20656;BME280;10487;53.320;8.672;2022-09-02T01:03:35;101896.97;;;11.28;40.75
20656;BME280;10487;53.320;8.672;2022-09-02T01:06:37;101902.50;;;11.25;40.76
20656;BME280;10487;53.320;8.672;2022-09-02T01:09:40;101891.91;;;11.24;40.80
20656;BME280;10487;53.320;8.672;2022-09-02T01:12:42;101886.84;;;11.19;40.81
20656;BME280;10487;53.320;8.672;2022-09-02T01:15:48;101893.22;;;11.16;40.98
20656;BME280;10487;53.320;8.672;2022-09-02T01:18:53;101881.84;;;11.13;40.83
20656;BME280;10487;53.320;8.672;2022-09-02T01:21:56;101882.97;;;11.09;40.98
20656;BME280;10487;53.320;8.672;2022-09-02T01:25:11;101881.34;;;11.06;41.07
20656;BME280;10487;53.320;8.672;2022-09-02T01:28:16;101874.47;;;11.02;41.04
20656;BME280;10487;53.320;8.672;2022-09-02T01:31:17;101873.78;;;10.99;41.06
20656;BME280;10487;53.320;8.672;2022-09-02T01:34:19;101868.59;;;10.96;41.18
20656;BME280;10487;53.320;8.672;2022-09-02T01:37:21;101872.41;;;10.92;41.25
20656;BME280;10487;53.320;8.672;2022-09-02T01:40:24;101872.59;;;10.89;41.27
20656;BME280;10487;53.320;8.672;2022-09-02T01:43:28;101867.34;;;10.87;41.28
20656;BME280;10487;53.320;8.672;2022-09-02T01:46:30;101867.41;;;10.86;41.44
20656;BME280;10487;53.320;8.672;2022-09-02T01:49:32;101863.97;;;10.84;41.45
20656;BME280;10487;53.320;8.672;2022-09-02T01:52:36;101867.59;;;10.83;41.44
20656;BME280;10487;53.320;8.672;2022-09-02T01:55:38;101867.59;;;10.83;41.51
20656;BME280;10487;53.320;8.672;2022-09-02T01:58:40;101864.16;;;10.81;41.53
20656;BME280;10487;53.320;8.672;2022-09-02T02:01:43;101856.34;;;10.78;41.47
20656;BME280;10487;53.320;8.672;2022-09-02T02:04:46;101852.88;;;10.76;41.49
20656;BME280;10487;53.320;8.672;2022-09-02T02:07:49;101861.06;;;10.73;41.79
20656;BME280;10487;53.320;8.672;2022-09-02T02:10:51;101862.09;;;10.70;41.59
20656;BME280;10487;53.320;8.672;2022-09-02T02:13:53;101850.72;;;10.67;41.65
20656;BME280;10487;53.320;8.672;2022-09-02T02:16:54;101853.56;;;10.64;41.88
20656;BME280;10487;53.320;8.672;2022-09-02T02:19:56;101849.25;;;10.61;41.79
20656;BME280;10487;53.320;8.672;2022-09-02T02:22:58;101860.97;;;10.59;41.78
20656;BME280;10487;53.320;8.672;2022-09-02T02:26:00;101847.78;;;10.55;41.75
20656;BME280;10487;53.320;8.672;2022-09-02T02:29:02;101856.81;;;10.53;41.78
20656;BME280;10487;53.320;8.672;2022-09-02T02:32:04;101845.38;;;10.51;41.88
20656;BME280;10487;53.320;8.672;2022-09-02T02:35:08;101851.75;;;10.48;41.83
20656;BME280;10487;53.320;8.672;2022-09-02T02:38:11;101857.28;;;10.45;42.02
20656;BME280;10487;53.320;8.672;2022-09-02T02:41:15;101848.66;;;10.40;42.13
20656;BME280;10487;53.320;8.672;2022-09-02T02:44:17;101840.09;;;10.34;42.19
20656;BME280;10487;53.320;8.672;2022-09-02T02:47:18;101839.50;;;10.29;42.28
20656;BME280;10487;53.320;8.672;2022-09-02T02:50:21;101840.63;;;10.25;42.32
20656;BME280;10487;53.320;8.672;2022-09-02T02:53:23;101837.19;;;10.23;42.39
20656;BME280;10487;53.320;8.672;2022-09-02T02:56:25;101838.13;;;10.22;42.33
20656;BME280;10487;53.320;8.672;2022-09-02T02:59:26;101835.53;;;10.20;42.35
20656;BME280;10487;53.320;8.672;2022-09-02T03:02:29;101829.50;;;10.17;42.32
20656;BME280;10487;53.320;8.672;2022-09-02T03:05:35;101832.25;;;10.15;42.30
20656;BME280;10487;53.320;8.672;2022-09-02T03:08:38;101836.81;;;10.13;42.46
20656;BME280;10487;53.320;8.672;2022-09-02T03:11:39;101837.91;;;10.09;42.59
20656;BME280;10487;53.320;8.672;2022-09-02T03:14:41;101829.16;;;10.07;42.56
20656;BME280;10487;53.320;8.672;2022-09-02T03:17:47;101832.75;;;10.06;42.52
20656;BME280;10487;53.320;8.672;2022-09-02T03:20:49;101822.28;;;10.03;42.66
20656;BME280;10487;53.320;8.672;2022-09-02T03:23:51;101828.63;;;10.01;42.71
20656;BME280;10487;53.320;8.672;2022-09-02T03:26:52;101829.66;;;9.98;42.68
20656;BME280;10487;53.320;8.672;2022-09-02T03:29:54;101820.03;;;9.96;42.77
20656;BME280;10487;53.320;8.672;2022-09-02T03:32:58;101829.81;;;9.95;42.70
20656;BME280;10487;53.320;8.672;2022-09-02T03:36:04;101830.84;;;9.93;42.93
20656;BME280;10487;53.320;8.672;2022-09-02T03:39:08;101822.06;;;9.90;42.79
20656;BME280;10487;53.320;8.672;2022-09-02T03:42:10;101815.94;;;9.88;42.85
20656;BME280;10487;53.320;8.672;2022-09-02T03:45:20;101815.25;;;9.85;42.91
20656;BME280;10487;53.320;8.672;2022-09-02T03:48:21;101816.28;;;9.82;42.99
20656;BME280;10487;53.320;8.672;2022-09-02T03:51:24;101820.84;;;9.80;43.02
20656;BME280;10487;53.320;8.672;2022-09-02T03:54:26;101821.88;;;9.78;43.00
20656;BME280;10487;53.320;8.672;2022-09-02T03:57:29;101820.28;;;9.74;43.04
20656;BME280;10487;53.320;8.672;2022-09-02T04:00:31;101820.53;;;9.69;43.21
20656;BME280;10487;53.320;8.672;2022-09-02T04:03:33;101819.75;;;9.67;43.18
20656;BME280;10487;53.320;8.672;2022-09-02T04:06:35;101812.88;;;9.63;43.33
20656;BME280;10487;53.320;8.672;2022-09-02T04:09:37;101813.91;;;9.61;43.26
20656;BME280;10487;53.320;8.672;2022-09-02T04:12:41;101813.09;;;9.59;43.28
20656;BME280;10487;53.320;8.672;2022-09-02T04:15:44;101815.00;;;9.57;43.39
20656;BME280;10487;53.320;8.672;2022-09-02T04:18:48;101806.22;;;9.55;43.34
20656;BME280;10487;53.320;8.672;2022-09-02T04:21:50;101812.66;;;9.51;43.35
20656;BME280;10487;53.320;8.672;2022-09-02T04:24:51;101813.69;;;9.48;43.46
20656;BME280;10487;53.320;8.672;2022-09-02T04:27:53;101812.97;;;9.45;43.36
20656;BME280;10487;53.320;8.672;2022-09-02T04:30:54;101813.13;;;9.42;43.53
20656;BME280;10487;53.320;8.672;2022-09-02T04:33:57;101809.78;;;9.38;43.64
20656;BME280;10487;53.320;8.672;2022-09-02T04:36:59;101815.16;;;9.37;43.62
20656;BME280;10487;53.320;8.672;2022-09-02T04:40:01;101813.47;;;9.36;43.56
20656;BME280;10487;53.320;8.672;2022-09-02T04:43:02;101808.28;;;9.33;43.73
20656;BME280;10487;53.320;8.672;2022-09-02T04:46:06;101807.38;;;9.34;43.67
20656;BME280;10487;53.320;8.672;2022-09-02T04:49:09;101801.22;;;9.32;43.69
20656;BME280;10487;53.320;8.672;2022-09-02T04:52:10;101814.69;;;9.28;43.86
20656;BME280;10487;53.320;8.672;2022-09-02T04:55:12;101808.56;;;9.26;43.99
20656;BME280;10487;53.320;8.672;2022-09-02T04:58:14;101812.25;;;9.24;43.84
20656;BME280;10487;53.320;8.672;2022-09-02T05:01:22;101813.25;;;9.21;44.02
20656;BME280;10487;53.320;8.672;2022-09-02T05:04:24;101809.75;;;9.21;44.06
20656;BME280;10487;53.320;8.672;2022-09-02T05:07:27;101809.81;;;9.19;43.94
20656;BME280;10487;53.320;8.672;2022-09-02T05:10:32;101809.81;;;9.19;44.16
20656;BME280;10487;53.320;8.672;2022-09-02T05:13:34;101804.19;;;9.25;44.18
20656;BME280;10487;53.320;8.672;2022-09-02T05:16:37;101806.56;;;9.49;44.30
20656;BME280;10487;53.320;8.672;2022-09-02T05:19:38;101797.97;;;9.59;44.17
20656;BME280;10487;53.320;8.672;2022-09-02T05:22:40;101802.91;;;9.67;44.27
20656;BME280;10487;53.320;8.672;2022-09-02T05:25:43;101806.03;;;9.75;44.19
20656;BME280;10487;53.320;8.672;2022-09-02T05:28:45;101808.69;;;9.75;44.33
20656;BME280;10487;53.320;8.672;2022-09-02T05:31:47;101814.97;;;9.74;44.36
20656;BME280;10487;53.320;8.672;2022-09-02T05:34:49;101805.16;;;9.74;44.34
20656;BME280;10487;53.320;8.672;2022-09-02T05:37:50;101812.22;;;9.75;44.41
20656;BME280;10487;53.320;8.672;2022-09-02T05:40:57;101809.41;;;9.94;44.52
20656;BME280;10487;53.320;8.672;2022-09-02T05:44:02;101815.03;;;10.05;44.41
20656;BME280;10487;53.320;8.672;2022-09-02T05:47:04;101805.06;;;10.09;44.49
20656;BME280;10487;53.320;8.672;2022-09-02T05:50:07;101806.78;;;10.10;44.43
20656;BME280;10487;53.320;8.672;2022-09-02T05:53:08;101805.75;;;10.12;44.49
20656;BME280;10487;53.320;8.672;2022-09-02T05:56:15;101809.19;;;10.14;44.59
20656;BME280;10487;53.320;8.672;2022-09-02T05:59:17;101801.81;;;10.19;44.61
20656;BME280;10487;53.320;8.672;2022-09-02T06:02:20;101798.81;;;10.25;44.52
20656;BME280;10487;53.320;8.672;2022-09-02T06:05:22;101800.25;;;10.31;44.58
20656;BME280;10487;53.320;8.672;2022-09-02T06:08:24;101797.34;;;10.35;44.55
20656;BME280;10487;53.320;8.672;2022-09-02T06:11:26;101799.66;;;10.41;44.61
20656;BME280;10487;53.320;8.672;2022-09-02T06:14:29;101801.25;;;10.45;44.52
20656;BME280;10487;53.320;8.672;2022-09-02T06:17:31;101802.63;;;10.52;44.60
20656;BME280;10487;53.320;8.672;2022-09-02T06:20:33;101795.13;;;10.59;44.64
20656;BME280;10487;53.320;8.672;2022-09-02T06:23:36;101799.16;;;10.66;44.62
20656;BME280;10487;53.320;8.672;2022-09-02T06:26:40;101793.38;;;10.74;44.61
20656;BME280;10487;53.320;8.672;2022-09-02T06:29:41;101802.56;;;10.84;44.65
20656;BME280;10487;53.320;8.672;2022-09-02T06:32:43;101799.44;;;10.91;44.54
20656;BME280;10487;53.320;8.672;2022-09-02T06:35:50;101800.63;;;11.01;44.67
20656;BME280;10487;53.320;8.672;2022-09-02T06:38:54;101806.28;;;11.11;44.49
20656;BME280;10487;53.320;8.672;2022-09-02T06:41:56;101805.66;;;11.22;44.75
20656;BME280;10487;53.320;8.672;2022-09-02T06:44:57;101802.34;;;11.32;44.67
20656;BME280;10487;53.320;8.672;2022-09-02T06:48:00;101808.88;;;11.42;44.76
20656;BME280;10487;53.320;8.672;2022-09-02T06:51:01;101804.84;;;11.49;44.85
20656;BME280;10487;53.320;8.672;2022-09-02T06:54:05;101808.78;;;11.58;44.67
20656;BME280;10487;53.320;8.672;2022-09-02T06:57:07;101804.59;;;11.68;44.72
20656;BME280;10487;53.320;8.672;2022-09-02T07:00:10;101804.06;;;11.77;44.51
20656;BME280;10487;53.320;8.672;2022-09-02T07:03:11;101805.28;;;11.86;44.78
20656;BME280;10487;53.320;8.672;2022-09-02T07:06:36;101804.63;;;11.96;44.64
20656;BME280;10487;53.320;8.672;2022-09-02T07:09:38;101801.28;;;12.07;44.53
20656;BME280;10487;53.320;8.672;2022-09-02T07:12:40;101800.69;;;12.16;44.80
20656;BME280;10487;53.320;8.672;2022-09-02T07:15:44;101794.84;;;12.23;44.71
20656;BME280;10487;53.320;8.672;2022-09-02T07:18:46;101789.63;;;12.34;44.72
20656;BME280;10487;53.320;8.672;2022-09-02T07:21:48;101789.81;;;12.45;44.52
20656;BME280;10487;53.320;8.672;2022-09-02T07:24:50;101795.16;;;12.60;44.55
20656;BME280;10487;53.320;8.672;2022-09-02T07:27:52;101796.28;;;12.70;44.52
20656;BME280;10487;53.320;8.672;2022-09-02T07:30:54;101786.56;;;12.81;44.82
20656;BME280;10487;53.320;8.672;2022-09-02T07:34:00;101788.31;;;12.95;44.75
20656;BME280;10487;53.320;8.672;2022-09-02T07:37:02;101774.97;;;13.07;44.55
20656;BME280;10487;53.320;8.672;2022-09-02T07:40:10;101783.22;;;13.17;44.45
20656;BME280;10487;53.320;8.672;2022-09-02T07:43:12;101785.25;;;13.26;44.62
20656;BME280;10487;53.320;8.672;2022-09-02T07:46:14;101778.22;;;13.38;44.36
20656;BME280;10487;53.320;8.672;2022-09-02T07:49:16;101777.41;;;13.50;44.29
20656;BME280;10487;53.320;8.672;2022-09-02T07:52:24;101784.91;;;13.57;44.53
20656;BME280;10487;53.320;8.672;2022-09-02T07:55:25;101779.09;;;13.63;44.43
20656;BME280;10487;53.320;8.672;2022-09-02T07:58:28;101773.31;;;13.69;44.29
20656;BME280;10487;53.320;8.672;2022-09-02T08:01:32;101778.75;;;13.81;44.39
20656;BME280;10487;53.320;8.672;2022-09-02T08:04:34;101784.44;;;13.89;44.36
20656;BME280;10487;53.320;8.672;2022-09-02T08:07:36;101781.22;;;13.96;44.45
20656;BME280;10487;53.320;8.672;2022-09-02T08:10:38;101780.88;;;14.01;44.31
20656;BME280;10487;53.320;8.672;2022-09-02T08:13:40;101783.22;;;14.05;44.15
20656;BME280;10487;53.320;8.672;2022-09-02T08:16:42;101784.53;;;14.12;44.26
20656;BME280;10487;53.320;8.672;2022-09-02T08:19:44;101786.66;;;14.20;44.28
20656;BME280;10487;53.320;8.672;2022-09-02T08:22:46;101788.78;;;14.27;44.15
20656;BME280;10487;53.320;8.672;2022-09-02T08:26:01;101785.31;;;14.38;43.95
20656;BME280;10487;53.320;8.672;2022-09-02T08:29:04;101787.56;;;14.44;44.19
20656;BME280;10487;53.320;8.672;2022-09-02T08:32:06;101788.84;;;14.51;44.00
20656;BME280;10487;53.320;8.672;2022-09-02T08:35:09;101786.53;;;14.58;44.07
20656;BME280;10487;53.320;8.672;2022-09-02T08:38:11;101790.50;;;14.65;44.25
20656;BME280;10487;53.320;8.672;2022-09-02T08:41:19;101781.84;;;14.72;44.09
20656;BME280;10487;53.320;8.672;2022-09-02T08:44:23;101782.03;;;14.82;44.02
20656;BME280;10487;53.320;8.672;2022-09-02T08:47:27;101772.31;;;14.92;43.91
20656;BME280;10487;53.320;8.672;2022-09-02T08:50:31;101770.00;;;14.98;43.94
20656;BME280;10487;53.320;8.672;2022-09-02T08:53:43;101764.91;;;15.07;43.84
20656;BME280;10487;53.320;8.672;2022-09-02T08:56:48;101762.22;;;15.18;43.91
20656;BME280;10487;53.320;8.672;2022-09-02T08:59:57;101766.59;;;15.31;43.77
20656;BME280;10487;53.320;8.672;2022-09-02T09:03:29;101760.25;;;15.43;43.64
20656;BME280;10487;53.320;8.672;2022-09-02T09:06:37;101758.31;;;15.56;43.71
20656;BME280;10487;53.320;8.672;2022-09-02T09:10:05;101761.00;;;15.67;43.70
20656;BME280;10487;53.320;8.672;2022-09-02T09:19:44;101751.09;;;15.90;43.52
20656;BME280;10487;53.320;8.672;2022-09-02T09:22:48;101751.22;;;16.00;43.38
20656;BME280;10487;53.320;8.672;2022-09-02T09:25:56;101736.94;;;16.10;43.26
20656;BME280;10487;53.320;8.672;2022-09-02T09:29:03;101732.50;;;16.20;43.33
20656;BME280;10487;53.320;8.672;2022-09-02T09:32:20;101739.69;;;16.31;43.35
20656;BME280;10487;53.320;8.672;2022-09-02T09:35:25;101724.38;;;16.43;43.05
20656;BME280;10487;53.320;8.672;2022-09-02T09:38:32;101714.28;;;16.56;42.86
20656;BME280;10487;53.320;8.672;2022-09-02T09:41:35;101722.16;;;16.68;42.77
20656;BME280;10487;53.320;8.672;2022-09-02T09:44:46;101718.19;;;16.83;42.89
20656;BME280;10487;53.320;8.672;2022-09-02T09:51:19;101716.06;;;17.19;42.49
20656;BME280;10487;53.320;8.672;2022-09-02T09:54:24;101704.09;;;17.32;42.54
20656;BME280;10487;53.320;8.672;2022-09-02T09:57:26;101703.31;;;17.51;42.46
20656;BME280;10487;53.320;8.672;2022-09-02T10:00:37;101704.53;;;17.68;41.97
20656;BME280;10487;53.320;8.672;2022-09-02T10:06:48;101702.38;;;17.92;42.10
20656;BME280;10487;53.320;8.672;2022-09-02T10:10:08;101699.44;;;18.04;41.83
20656;BME280;10487;53.320;8.672;2022-09-02T10:13:22;101701.72;;;18.18;41.95
20656;BME280;10487;53.320;8.672;2022-09-02T10:19:46;101693.41;;;18.60;41.34
20656;BME280;10487;53.320;8.672;2022-09-02T10:26:16;101687.56;;;18.83;41.14
20656;BME280;10487;53.320;8.672;2022-09-02T10:35:46;101666.31;;;19.17;41.28
20656;BME280;10487;53.320;8.672;2022-09-02T10:38:48;101664.44;;;19.27;40.93
20656;BME280;10487;53.320;8.672;2022-09-02T10:41:56;101660.84;;;19.36;40.88
20656;BME280;10487;53.320;8.672;2022-09-02T10:48:29;101652.31;;;19.59;40.74
20656;BME280;10487;53.320;8.672;2022-09-02T10:58:18;101650.03;;;19.64;40.65
20656;BME280;10487;53.320;8.672;2022-09-02T11:01:37;101642.72;;;19.74;40.32
20656;BME280;10487;53.320;8.672;2022-09-02T11:05:11;101647.34;;;19.91;40.16
20656;BME280;10487;53.320;8.672;2022-09-02T11:08:25;101646.75;;;19.97;40.24
20656;BME280;10487;53.320;8.672;2022-09-02T11:12:03;101629.34;;;19.99;39.83
20656;BME280;10487;53.320;8.672;2022-09-02T11:15:18;101630.41;;;20.06;39.91
20656;BME280;10487;53.320;8.672;2022-09-02T11:21:46;101626.94;;;20.14;39.78
20656;BME280;10487;53.320;8.672;2022-09-02T11:28:51;101615.41;;;20.30;39.51
20656;BME280;10487;53.320;8.672;2022-09-02T11:32:18;101622.53;;;20.31;39.41
20656;BME280;10487;53.320;8.672;2022-09-02T11:35:25;101620.66;;;20.31;39.01
20656;BME280;10487;53.320;8.672;2022-09-02T11:42:06;101604.75;;;20.11;39.06
20656;BME280;10487;53.320;8.672;2022-09-02T11:46:14;101602.00;;;20.28;39.01
20656;BME280;10487;53.320;8.672;2022-09-02T11:55:32;101602.16;;;20.88;38.72
20656;BME280;10487;53.320;8.672;2022-09-02T11:58:38;101596.75;;;20.88;38.47
20656;BME280;10487;53.320;8.672;2022-09-02T12:01:58;101591.06;;;20.99;38.55
20656;BME280;10487;53.320;8.672;2022-09-02T12:08:55;101593.19;;;21.13;38.17
20656;BME280;10487;53.320;8.672;2022-09-02T12:11:54;101586.81;;;21.22;37.87
20656;BME280;10487;53.320;8.672;2022-09-02T12:21:11;101585.84;;;21.31;37.43
20656;BME280;10487;53.320;8.672;2022-09-02T12:24:19;101577.88;;;21.29;37.61
20656;BME280;10487;53.320;8.672;2022-09-02T12:27:31;101565.84;;;21.32;37.58
20656;BME280;10487;53.320;8.672;2022-09-02T12:37:52;101570.50;;;21.56;37.23
20656;BME280;10487;53.320;8.672;2022-09-02T12:44:19;101556.75;;;21.57;37.06
20656;BME280;10487;53.320;8.672;2022-09-02T12:47:42;101556.75;;;21.49;36.93
20656;BME280;10487;53.320;8.672;2022-09-02T12:50:53;101552.94;;;21.34;37.00
20656;BME280;10487;53.320;8.672;2022-09-02T12:53:56;101541.38;;;21.24;36.83
20656;BME280;10487;53.320;8.672;2022-09-02T12:56:58;101540.50;;;21.23;36.82
20656;BME280;10487;53.320;8.672;2022-09-02T13:00:00;101542.22;;;21.24;36.74
20656;BME280;10487;53.320;8.672;2022-09-02T13:04:02;101537.16;;;21.29;36.82
20656;BME280;10487;53.320;8.672;2022-09-02T13:16:51;101533.00;;;21.51;36.60
20656;BME280;10487;53.320;8.672;2022-09-02T13:23:35;101511.75;;;21.39;36.34
20656;BME280;10487;53.320;8.672;2022-09-02T13:33:20;101511.91;;;21.37;35.95
20656;BME280;10487;53.320;8.672;2022-09-02T13:36:26;101519.69;;;21.32;36.31
20656;BME280;10487;53.320;8.672;2022-09-02T13:39:28;101510.84;;;21.22;36.06
20656;BME280;10487;53.320;8.672;2022-09-02T13:42:30;101497.69;;;21.09;36.29
20656;BME280;10487;53.320;8.672;2022-09-02T13:45:34;101505.25;;;20.98;36.19
20656;BME280;10487;53.320;8.672;2022-09-02T13:48:38;101493.91;;;20.94;36.37
20656;BME280;10487;53.320;8.672;2022-09-02T13:51:41;101496.63;;;20.94;35.95
20656;BME280;10487;53.320;8.672;2022-09-02T13:54:49;101491.81;;;20.88;36.17
20656;BME280;10487;53.320;8.672;2022-09-02T13:57:57;101496.75;;;20.85;35.92
20656;BME280;10487;53.320;8.672;2022-09-02T14:04:19;101493.13;;;20.76;36.02
20656;BME280;10487;53.320;8.672;2022-09-02T14:07:40;101480.91;;;20.72;35.84
20656;BME280;10487;53.320;8.672;2022-09-02T14:10:42;101475.78;;;20.69;36.02
20656;BME280;10487;53.320;8.672;2022-09-02T14:13:47;101482.06;;;20.69;35.65
20656;BME280;10487;53.320;8.672;2022-09-02T14:16:50;101483.13;;;20.77;35.84
20656;BME280;10487;53.320;8.672;2022-09-02T14:20:19;101476.16;;;20.74;35.77
20656;BME280;10487;53.320;8.672;2022-09-02T14:23:22;101458.84;;;20.67;35.79
20656;BME280;10487;53.320;8.672;2022-09-02T14:26:37;101466.44;;;20.63;35.73
20656;BME280;10487;53.320;8.672;2022-09-02T14:29:45;101466.63;;;20.62;35.89
20656;BME280;10487;53.320;8.672;2022-09-02T14:32:47;101459.16;;;20.64;35.61
20656;BME280;10487;53.320;8.672;2022-09-02T14:42:10;101455.69;;;20.88;35.55
20656;BME280;10487;53.320;8.672;2022-09-02T14:45:13;101451.00;;;20.98;35.44
20656;BME280;10487;53.320;8.672;2022-09-02T14:48:21;101443.06;;;21.04;35.30
20656;BME280;10487;53.320;8.672;2022-09-02T14:51:32;101441.56;;;21.10;35.27
20656;BME280;10487;53.320;8.672;2022-09-02T14:57:39;101444.59;;;21.07;35.07
20656;BME280;10487;53.320;8.672;2022-09-02T15:00:48;101431.00;;;20.99;35.23
20656;BME280;10487;53.320;8.672;2022-09-02T15:03:52;101440.88;;;21.00;35.21
20656;BME280;10487;53.320;8.672;2022-09-02T15:06:54;101448.31;;;21.06;35.05
20656;BME280;10487;53.320;8.672;2022-09-02T15:09:57;101438.00;;;21.09;34.95
20656;BME280;10487;53.320;8.672;2022-09-02T15:12:59;101432.13;;;21.14;35.16
20656;BME280;10487;53.320;8.672;2022-09-02T15:16:01;101424.47;;;21.17;34.99
20656;BME280;10487;53.320;8.672;2022-09-02T15:19:04;101428.91;;;21.18;34.92
20656;BME280;10487;53.320;8.672;2022-09-02T15:22:15;101435.00;;;21.20;34.92
20656;BME280;10487;53.320;8.672;2022-09-02T15:25:18;101441.97;;;21.23;35.30
20656;BME280;10487;53.320;8.672;2022-09-02T15:28:20;101437.38;;;21.23;34.84
20656;BME280;10487;53.320;8.672;2022-09-02T15:31:26;101431.97;;;21.23;34.99
20656;BME280;10487;53.320;8.672;2022-09-02T15:34:29;101433.31;;;21.19;34.81
20656;BME280;10487;53.320;8.672;2022-09-02T15:37:31;101426.88;;;21.12;34.89
20656;BME280;10487;53.320;8.672;2022-09-02T15:40:37;101427.31;;;21.08;34.69
20656;BME280;10487;53.320;8.672;2022-09-02T15:43:39;101421.19;;;21.06;34.80
20656;BME280;10487;53.320;8.672;2022-09-02T15:46:43;101427.31;;;21.08;34.75
20656;BME280;10487;53.320;8.672;2022-09-02T15:49:45;101420.00;;;21.08;34.86
20656;BME280;10487;53.320;8.672;2022-09-02T15:52:49;101426.31;;;21.09;34.67
20656;BME280;10487;53.320;8.672;2022-09-02T15:55:51;101418.47;;;21.06;34.62
20656;BME280;10487;53.320;8.672;2022-09-02T15:58:57;101420.53;;;21.04;34.60
20656;BME280;10487;53.320;8.672;2022-09-02T16:01:59;101420.34;;;20.97;34.53
20656;BME280;10487;53.320;8.672;2022-09-02T16:05:01;101421.97;;;20.90;34.74
20656;BME280;10487;53.320;8.672;2022-09-02T16:08:03;101419.94;;;20.84;34.60
20656;BME280;10487;53.320;8.672;2022-09-02T16:11:06;101420.94;;;20.83;34.58
20656;BME280;10487;53.320;8.672;2022-09-02T16:14:09;101412.31;;;20.80;34.42
20656;BME280;10487;53.320;8.672;2022-09-02T16:17:12;101404.47;;;20.77;34.46
20656;BME280;10487;53.320;8.672;2022-09-02T16:20:14;101402.94;;;20.74;34.65
20656;BME280;10487;53.320;8.672;2022-09-02T16:23:21;101399.03;;;20.68;34.51
20656;BME280;10487;53.320;8.672;2022-09-02T16:29:26;101395.53;;;20.50;34.62
20656;BME280;10487;53.320;8.672;2022-09-02T16:32:30;101395.88;;;20.47;34.71
20656;BME280;10487;53.320;8.672;2022-09-02T16:35:31;101385.19;;;20.46;34.48
20656;BME280;10487;53.320;8.672;2022-09-02T16:38:34;101377.19;;;20.44;34.68
20656;BME280;10487;53.320;8.672;2022-09-02T16:41:40;101374.81;;;20.41;34.70
20656;BME280;10487;53.320;8.672;2022-09-02T16:44:44;101375.13;;;20.38;34.43
20656;BME280;10487;53.320;8.672;2022-09-02T16:47:51;101380.88;;;20.35;34.59
20656;BME280;10487;53.320;8.672;2022-09-02T16:50:53;101373.06;;;20.32;34.63
20656;BME280;10487;53.320;8.672;2022-09-02T16:53:57;101369.69;;;20.30;34.66
20656;BME280;10487;53.320;8.672;2022-09-02T16:56:59;101363.72;;;20.27;34.45
20656;BME280;10487;53.320;8.672;2022-09-02T17:00:03;101373.88;;;20.25;34.57
20656;BME280;10487;53.320;8.672;2022-09-02T17:03:09;101366.91;;;20.22;34.60
20656;BME280;10487;53.320;8.672;2022-09-02T17:06:12;101359.41;;;20.16;34.63
20656;BME280;10487;53.320;8.672;2022-09-02T17:09:14;101363.66;;;20.11;34.52
20656;BME280;10487;53.320;8.672;2022-09-02T17:12:16;101360.56;;;20.05;34.59
20656;BME280;10487;53.320;8.672;2022-09-02T17:15:18;101363.03;;;19.99;34.58
20656;BME280;10487;53.320;8.672;2022-09-02T17:18:20;101359.97;;;19.94;34.80
20656;BME280;10487;53.320;8.672;2022-09-02T17:21:29;101360.75;;;19.86;34.59
20656;BME280;10487;53.320;8.672;2022-09-02T17:24:31;101368.66;;;19.80;34.50
20656;BME280;10487;53.320;8.672;2022-09-02T17:27:36;101366.72;;;19.72;34.68
20656;BME280;10487;53.320;8.672;2022-09-02T17:30:38;101367.50;;;19.65;34.72
20656;BME280;10487;53.320;8.672;2022-09-02T17:33:40;101368.28;;;19.57;34.57
20656;BME280;10487;53.320;8.672;2022-09-02T17:36:42;101377.19;;;19.50;34.76
20656;BME280;10487;53.320;8.672;2022-09-02T17:39:50;101367.81;;;19.44;34.55
20656;BME280;10487;53.320;8.672;2022-09-02T17:42:52;101366.75;;;19.37;35.04
20656;BME280;10487;53.320;8.672;2022-09-02T17:46:06;101371.94;;;19.30;34.97
20656;BME280;10487;53.320;8.672;2022-09-02T17:49:09;101370.53;;;19.26;35.05
20656;BME280;10487;53.320;8.672;2022-09-02T17:52:22;101374.72;;;19.21;34.66
20656;BME280;10487;53.320;8.672;2022-09-02T17:55:24;101378.59;;;19.18;34.71
20656;BME280;10487;53.320;8.672;2022-09-02T17:58:30;101379.75;;;19.16;34.78